Time;durP1;ratioP1;P1;durP2;ratioP2;P2;SDS_P1;SDS_P2;PMS_P1;PMS_P2;Temp;Humidity;BMP_temperature;BMP_pressure;BME280_temperature;BME280_humidity;BME280_pressure;Samples;Min_cycle;Max_cycle;Signal;HPM_P1;HPM_P2
2024/03/24 00:01:23;;;;;;;0.00;0.00;;;;;;;9.26;74.84;99735.94;5039132;28;20043;-68
2024/03/24 00:03:48;;;;;;;0.00;0.00;;;;;;;9.18;78.37;99740.28;5039843;28;20488;-69
2024/03/24 00:06:14;;;;;;;0.40;0.00;;;;;;;9.10;78.42;99741.03;5041369;28;20048;-68
2024/03/24 00:08:39;;;;;;;0.00;0.00;;;;;;;9.13;78.04;99745.09;5033600;28;20021;-69
2024/03/24 00:11:05;;;;;;;0.15;0.00;;;;;;;9.17;77.85;99749.84;5035089;28;20060;-69
2024/03/24 00:13:31;;;;;;;0.47;0.00;;;;;;;9.35;70.42;99768.00;5038789;28;20075;-69
2024/03/24 00:15:57;;;;;;;0.40;0.00;;;;;;;9.46;73.98;99770.31;5039839;28;20077;-68
2024/03/24 00:18:23;;;;;;;0.10;0.00;;;;;;;9.48;73.80;99791.78;5045066;28;20063;-68
2024/03/24 00:20:48;;;;;;;0.15;0.00;;;;;;;9.62;70.50;99790.41;5045068;28;20465;-68
2024/03/24 00:23:15;;;;;;;0.17;0.00;;;;;;;9.67;74.12;99800.34;5042132;28;20033;-68
2024/03/24 00:25:41;;;;;;;0.10;0.00;;;;;;;9.60;76.71;99802.75;5036911;28;20071;-68
2024/03/24 00:28:06;;;;;;;0.10;0.00;;;;;;;9.48;79.01;99829.97;5036501;28;20481;-68
2024/03/24 00:30:32;;;;;;;0.10;0.00;;;;;;;9.25;78.77;99829.66;5040673;28;20033;-68
2024/03/24 00:32:58;;;;;;;0.35;0.00;;;;;;;9.23;76.95;99824.63;5049608;28;20043;-68
2024/03/24 00:35:24;;;;;;;0.40;0.00;;;;;;;9.21;73.56;99826.56;5040429;28;20546;-68
2024/03/24 00:37:50;;;;;;;0.10;0.00;;;;;;;9.20;74.52;99843.13;5038337;28;20071;-68
2024/03/24 00:40:16;;;;;;;0.00;0.00;;;;;;;9.20;72.64;99857.91;5032999;28;20071;-68
2024/03/24 00:42:41;;;;;;;0.00;0.00;;;;;;;9.17;70.84;99879.00;5037919;28;20177;-68
2024/03/24 00:45:08;;;;;;;0.00;0.00;;;;;;;9.16;71.39;99878.16;5038489;28;20036;-68
2024/03/24 00:47:34;;;;;;;0.10;0.00;;;;;;;9.14;70.69;99864.50;5044593;28;20029;-68
2024/03/24 00:49:59;;;;;;;0.00;0.00;;;;;;;9.11;69.57;99854.41;5036365;28;20048;-68
2024/03/24 00:52:24;;;;;;;0.10;0.00;;;;;;;9.19;68.34;99856.25;5038864;28;20034;-68
2024/03/24 00:54:50;;;;;;;0.38;0.00;;;;;;;9.31;68.19;99860.25;5033198;28;20064;-68
2024/03/24 00:57:15;;;;;;;0.03;0.00;;;;;;;9.37;67.49;99853.66;5034370;28;20037;-68
2024/03/24 00:59:41;;;;;;;0.63;0.00;;;;;;;9.44;65.22;99839.06;5040160;28;20074;-68
2024/03/24 01:02:06;;;;;;;1.75;0.00;;;;;;;9.49;63.25;99840.22;5041476;28;20037;-68
2024/03/24 01:04:32;;;;;;;0.10;0.00;;;;;;;9.56;62.76;99797.03;5031769;28;20032;-68
2024/03/24 01:06:57;;;;;;;0.20;0.00;;;;;;;9.45;62.66;99799.91;5040323;28;20040;-68
2024/03/24 01:09:23;;;;;;;0.00;0.00;;;;;;;9.48;64.29;99794.38;5036758;28;20037;-68
2024/03/24 01:11:48;;;;;;;0.00;0.00;;;;;;;9.54;64.56;99796.38;5037346;28;20061;-69
2024/03/24 01:14:14;;;;;;;1.42;0.00;;;;;;;9.62;64.07;99821.63;5037888;28;20512;-68
2024/03/24 01:16:39;;;;;;;1.25;0.00;;;;;;;9.70;63.28;99839.06;5040778;28;20400;-68
2024/03/24 01:19:05;;;;;;;0.93;0.00;;;;;;;9.70;63.73;99855.47;5034423;28;20037;-69
2024/03/24 01:21:30;;;;;;;0.20;0.00;;;;;;;9.71;67.48;99877.09;5045868;28;20036;-69
2024/03/24 01:23:56;;;;;;;0.45;0.00;;;;;;;9.68;64.36;99901.63;5045394;28;20057;-68
2024/03/24 01:26:22;;;;;;;0.10;0.00;;;;;;;9.64;65.04;99898.53;5039130;28;20041;-69
2024/03/24 01:28:48;;;;;;;0.00;0.00;;;;;;;9.54;65.75;99877.00;5040283;28;20028;-68
2024/03/24 01:31:14;;;;;;;0.10;0.00;;;;;;;9.42;66.09;99848.81;5043407;28;20024;-68
2024/03/24 01:33:40;;;;;;;0.17;0.00;;;;;;;9.25;66.36;99814.88;5050650;28;20045;-68
2024/03/24 01:36:06;;;;;;;0.00;0.00;;;;;;;9.04;64.83;99842.97;5048801;28;20503;-67
2024/03/24 01:38:32;;;;;;;0.30;0.00;;;;;;;8.79;65.51;99867.13;5051077;28;20025;-68
2024/03/24 01:40:58;;;;;;;0.10;0.00;;;;;;;8.64;66.94;99901.38;5047518;28;20071;-68
2024/03/24 01:43:24;;;;;;;0.00;0.00;;;;;;;8.49;67.23;99920.19;5044987;28;20044;-68
2024/03/24 01:45:51;;;;;;;0.00;0.00;;;;;;;8.36;68.11;99911.94;5046150;28;20028;-68
2024/03/24 01:48:17;;;;;;;0.17;0.00;;;;;;;8.19;70.26;99896.09;5044565;28;20404;-68
2024/03/24 01:50:42;;;;;;;0.20;0.00;;;;;;;8.05;69.75;99883.59;5045003;28;20025;-68
2024/03/24 01:53:10;;;;;;;0.00;0.00;;;;;;;8.01;68.90;99864.13;5052554;28;20041;-68
2024/03/24 01:55:36;;;;;;;0.30;0.00;;;;;;;8.08;70.04;99856.53;5047237;28;20052;-68
2024/03/24 01:58:01;;;;;;;0.85;0.00;;;;;;;8.26;69.78;99841.84;5049388;28;20029;-68
2024/03/24 02:00:27;;;;;;;0.65;0.00;;;;;;;8.37;70.03;99838.28;5047722;28;20041;-68
2024/03/24 02:02:53;;;;;;;0.00;0.00;;;;;;;8.43;69.21;99827.31;5044715;28;20032;-68
2024/03/24 02:05:26;;;;;;;4.75;0.00;;;;;;;8.48;68.25;99819.91;5045154;28;20136;-68
2024/03/24 02:07:52;;;;;;;0.20;0.00;;;;;;;8.49;68.58;99830.16;5044244;28;20033;-68
2024/03/24 02:10:18;;;;;;;2.28;0.00;;;;;;;8.47;67.72;99829.47;5034968;28;20124;-68
2024/03/24 02:12:44;;;;;;;0.65;0.00;;;;;;;8.55;67.93;99826.13;5038641;28;20405;-68
2024/03/24 02:15:12;;;;;;;0.00;0.00;;;;;;;8.60;69.95;99835.13;5036822;28;20044;-67
2024/03/24 02:17:38;;;;;;;0.70;0.00;;;;;;;8.56;71.45;99853.72;5047330;28;20037;-68
2024/03/24 02:20:04;;;;;;;0.63;0.00;;;;;;;8.43;71.74;99867.06;5031770;28;20091;-69
2024/03/24 02:22:36;;;;;;;0.00;0.00;;;;;;;8.19;72.74;99856.38;5040253;28;20036;-69
2024/03/24 02:25:01;;;;;;;0.00;0.00;;;;;;;7.94;73.11;99845.69;5046898;28;20047;-68
2024/03/24 02:27:27;;;;;;;0.00;0.00;;;;;;;7.81;73.90;99840.00;5044885;28;20028;-68
2024/03/24 02:29:52;;;;;;;0.00;0.00;;;;;;;7.70;73.12;99836.75;5049513;28;20033;-68
2024/03/24 02:32:18;;;;;;;0.00;0.00;;;;;;;7.61;73.33;99839.25;5046295;28;20127;-67
2024/03/24 02:34:43;;;;;;;0.73;0.00;;;;;;;7.58;72.72;99836.09;5048070;28;20083;-67
2024/03/24 02:37:09;;;;;;;1.08;0.00;;;;;;;7.54;73.44;99830.41;5039306;28;20086;-67
2024/03/24 02:39:34;;;;;;;0.00;0.00;;;;;;;7.49;74.57;99832.59;5043903;28;20396;-68
2024/03/24 02:42:00;;;;;;;0.00;0.00;;;;;;;7.48;75.02;99827.56;5043460;28;20055;-67
2024/03/24 02:44:27;;;;;;;0.00;0.00;;;;;;;7.45;73.79;99833.84;5047270;28;20056;-68
2024/03/24 02:46:52;;;;;;;0.00;0.00;;;;;;;7.44;74.08;99833.97;5039540;28;20454;-68
2024/03/24 02:49:18;;;;;;;0.00;0.00;;;;;;;7.47;73.67;99855.25;5046848;28;20039;-68
2024/03/24 02:51:43;;;;;;;0.00;0.00;;;;;;;7.45;73.92;99857.16;5043487;28;20449;-68
2024/03/24 02:54:09;;;;;;;0.00;0.00;;;;;;;7.45;75.62;99854.59;5048657;28;20095;-69
2024/03/24 02:56:35;;;;;;;0.00;0.00;;;;;;;7.46;74.43;99858.81;5040174;28;20041;-68
2024/03/24 02:59:00;;;;;;;0.00;0.00;;;;;;;7.57;73.95;99858.63;5050853;28;20028;-67
2024/03/24 03:01:27;;;;;;;0.00;0.00;;;;;;;7.59;73.85;99866.25;5042625;28;20140;-67
2024/03/24 03:03:52;;;;;;;0.00;0.00;;;;;;;7.60;73.58;99858.34;5038741;28;20083;-67
2024/03/24 03:06:18;;;;;;;0.00;0.00;;;;;;;7.53;73.30;99872.84;5036919;28;20077;-67
2024/03/24 03:08:44;;;;;;;0.00;0.00;;;;;;;7.46;73.41;99876.94;5041970;28;20029;-67
2024/03/24 03:11:10;;;;;;;0.00;0.00;;;;;;;7.36;74.36;99868.38;5046568;28;20069;-68
2024/03/24 03:13:35;;;;;;;0.00;0.00;;;;;;;7.22;74.26;99872.19;5043842;28;20033;-67
2024/03/24 03:16:00;;;;;;;0.00;0.00;;;;;;;7.09;74.30;99861.28;5048205;28;20079;-67
2024/03/24 03:18:26;;;;;;;0.00;0.00;;;;;;;6.99;75.69;99874.25;5047309;28;20468;-67
2024/03/24 03:20:51;;;;;;;0.10;0.00;;;;;;;6.91;76.35;99875.88;5046551;28;20078;-68
2024/03/24 03:23:17;;;;;;;0.00;0.00;;;;;;;6.86;76.81;99865.94;5050468;28;20039;-67
2024/03/24 03:25:43;;;;;;;0.00;0.00;;;;;;;6.84;76.93;99854.06;5048246;28;20120;-68
2024/03/24 03:28:08;;;;;;;0.00;0.00;;;;;;;6.79;76.94;99841.53;5041978;28;20032;-67
2024/03/24 03:30:34;;;;;;;0.00;0.00;;;;;;;6.82;76.79;99843.84;5045269;28;20031;-67
2024/03/24 03:32:59;;;;;;;0.00;0.00;;;;;;;6.87;77.26;99867.56;5048875;28;20760;-67
2024/03/24 03:35:25;;;;;;;0.00;0.00;;;;;;;6.91;77.16;99879.28;5043024;28;20033;-68
2024/03/24 03:37:50;;;;;;;3.00;0.00;;;;;;;6.90;76.53;99864.69;5049042;28;20040;-67
2024/03/24 03:40:15;;;;;;;0.00;0.00;;;;;;;6.90;78.03;99863.88;5046279;28;20040;-67
2024/03/24 03:42:41;;;;;;;0.00;0.00;;;;;;;6.83;77.43;99861.00;5043799;28;20029;-67
2024/03/24 03:45:07;;;;;;;0.00;0.00;;;;;;;6.80;76.52;99853.50;5032368;28;20029;-67
2024/03/24 03:47:33;;;;;;;0.00;0.00;;;;;;;6.82;76.83;99838.66;5046933;28;20078;-68
2024/03/24 03:50:00;;;;;;;0.00;0.00;;;;;;;6.87;76.13;99820.94;5039231;28;20084;-67
2024/03/24 03:52:29;;;;;;;0.98;0.00;;;;;;;6.92;76.68;99829.13;5045098;28;20025;-69
2024/03/24 03:54:57;;;;;;;0.00;0.00;;;;;;;6.98;76.87;99851.06;5042131;28;20024;-68
2024/03/24 03:57:23;;;;;;;2.42;0.00;;;;;;;7.04;76.44;99878.22;5039898;28;20043;-68
2024/03/24 03:59:49;;;;;;;0.10;0.00;;;;;;;7.09;77.73;99876.81;5040550;28;20113;-67
2024/03/24 04:02:14;;;;;;;0.63;0.00;;;;;;;7.09;78.71;99876.03;5044707;28;20041;-67
2024/03/24 04:04:41;;;;;;;0.03;0.00;;;;;;;7.08;79.16;99870.03;5045549;28;20152;-67
2024/03/24 04:07:06;;;;;;;0.03;0.00;;;;;;;7.08;78.18;99866.63;5047118;28;20498;-67
2024/03/24 04:09:32;;;;;;;0.00;0.00;;;;;;;7.14;76.68;99853.91;5042729;28;20124;-67
2024/03/24 04:11:57;;;;;;;0.00;0.00;;;;;;;7.14;78.01;99853.09;5043067;28;20373;-68
2024/03/24 04:14:23;;;;;;;0.00;0.00;;;;;;;7.15;76.82;99850.38;5042086;28;20053;-68
2024/03/24 04:16:50;;;;;;;0.00;0.00;;;;;;;7.18;77.64;99842.31;5044847;28;20177;-67
2024/03/24 04:19:15;;;;;;;0.00;0.00;;;;;;;7.13;75.54;99843.69;5041631;28;20094;-67
2024/03/24 04:21:41;;;;;;;0.00;0.00;;;;;;;7.10;77.71;99837.00;5037591;28;20487;-67
2024/03/24 04:24:06;;;;;;;0.00;0.00;;;;;;;7.12;75.80;99852.41;5041708;28;20432;-68
2024/03/24 04:26:31;;;;;;;0.10;0.00;;;;;;;7.13;78.17;99864.41;5040294;28;20094;-68
2024/03/24 04:28:57;;;;;;;0.00;0.00;;;;;;;7.11;77.17;99854.19;5045844;28;20036;-67
2024/03/24 04:31:23;;;;;;;0.00;0.00;;;;;;;7.19;75.73;99856.09;5038692;28;20045;-67
2024/03/24 04:33:49;;;;;;;0.00;0.00;;;;;;;7.25;77.41;99850.38;5038673;28;20049;-68
2024/03/24 04:36:14;;;;;;;0.03;0.00;;;;;;;7.19;78.16;99850.91;5036397;28;20334;-68
2024/03/24 04:38:40;;;;;;;0.00;0.00;;;;;;;7.10;79.42;99847.38;5037154;28;20071;-67
2024/03/24 04:41:09;;;;;;;0.00;0.00;;;;;;;7.07;80.03;99857.22;5039813;28;20073;-68
2024/03/24 04:43:36;;;;;;;0.77;0.00;;;;;;;6.98;80.01;99862.25;5042541;28;20090;-67
2024/03/24 04:46:01;;;;;;;0.20;0.00;;;;;;;6.94;81.21;99855.72;5039215;28;20029;-67
2024/03/24 04:48:26;;;;;;;0.00;0.00;;;;;;;6.88;81.60;99863.19;5048324;28;20041;-67
2024/03/24 04:50:52;;;;;;;0.00;0.00;;;;;;;6.88;81.63;99856.25;5044114;28;20058;-67
2024/03/24 04:53:17;;;;;;;0.00;0.00;;;;;;;6.89;82.44;99864.84;5038945;28;20466;-67
2024/03/24 04:55:43;;;;;;;0.30;0.00;;;;;;;6.82;82.19;99861.97;5044536;28;20086;-67
2024/03/24 04:58:08;;;;;;;0.00;0.00;;;;;;;6.82;81.82;99877.50;5037097;28;20035;-67
2024/03/24 05:00:34;;;;;;;0.93;0.00;;;;;;;6.79;80.92;99872.59;5047761;28;20030;-67
2024/03/24 05:02:59;;;;;;;0.28;0.00;;;;;;;6.79;81.23;99880.34;5038060;28;20029;-67
2024/03/24 05:05:25;;;;;;;0.00;0.00;;;;;;;6.74;79.74;99877.34;5041935;28;20357;-68
2024/03/24 05:07:50;;;;;;;0.00;0.00;;;;;;;6.71;80.88;99882.78;5043970;28;20115;-67
2024/03/24 05:10:18;;;;;;;1.02;0.00;;;;;;;6.68;80.30;99883.06;5040981;28;20029;-67
2024/03/24 05:12:43;;;;;;;0.00;0.00;;;;;;;6.68;80.93;99885.66;5046089;28;20025;-67
2024/03/24 05:15:10;;;;;;;0.22;0.00;;;;;;;6.62;81.49;99879.22;5045365;28;20507;-67
2024/03/24 05:17:36;;;;;;;0.00;0.00;;;;;;;6.49;81.55;99885.63;5046128;28;20029;-67
2024/03/24 05:20:02;;;;;;;0.00;0.00;;;;;;;6.46;81.78;99893.66;5042136;28;20381;-67
2024/03/24 05:22:27;;;;;;;0.52;0.00;;;;;;;6.40;81.98;99886.41;5042111;28;20044;-67
2024/03/24 05:24:53;;;;;;;0.43;0.00;;;;;;;6.42;81.96;99897.44;5037838;28;20113;-67
2024/03/24 05:27:19;;;;;;;0.00;0.00;;;;;;;6.35;82.28;99891.16;5038809;28;20041;-67
2024/03/24 05:29:44;;;;;;;0.10;0.00;;;;;;;6.19;82.98;99895.06;5043238;28;20488;-68
2024/03/24 05:32:13;;;;;;;0.08;0.00;;;;;;;6.10;83.98;99908.78;5037136;28;20081;-67
2024/03/24 05:34:42;;;;;;;0.60;0.00;;;;;;;6.00;84.62;99902.75;5045766;28;20350;-67
2024/03/24 05:37:07;;;;;;;0.52;0.00;;;;;;;5.93;85.51;99901.63;5040717;28;20041;-67
2024/03/24 05:39:33;;;;;;;0.80;0.00;;;;;;;5.90;85.84;99901.88;5037404;28;20429;-67
2024/03/24 05:41:58;;;;;;;3.10;0.00;;;;;;;5.89;86.07;99906.22;5038883;28;20029;-67
2024/03/24 05:44:23;;;;;;;0.00;0.00;;;;;;;5.89;86.58;99913.16;5036604;28;20031;-67
2024/03/24 05:46:49;;;;;;;0.20;0.00;;;;;;;5.87;86.44;99912.44;5037063;28;20032;-67
2024/03/24 05:49:15;;;;;;;0.00;0.00;;;;;;;5.84;86.70;99908.34;5036589;28;20033;-67
2024/03/24 05:51:40;;;;;;;0.00;0.00;;;;;;;5.97;86.07;99909.00;5038352;28;20075;-67
2024/03/24 05:54:06;;;;;;;0.40;0.10;;;;;;;6.08;85.40;99910.69;5034450;28;20090;-67
2024/03/24 05:56:32;;;;;;;0.88;0.20;;;;;;;6.14;84.87;99914.53;5033221;28;20048;-67
2024/03/24 05:58:58;;;;;;;0.50;0.00;;;;;;;6.21;84.92;99908.66;5032464;28;20036;-67
2024/03/24 06:01:25;;;;;;;0.10;0.00;;;;;;;6.29;84.89;99914.03;5035886;28;20041;-67
2024/03/24 06:03:53;;;;;;;0.60;0.10;;;;;;;6.37;84.96;99900.44;5037489;28;20037;-67
2024/03/24 06:06:19;;;;;;;3.67;2.10;;;;;;;6.43;84.39;99912.03;5032353;28;20069;-67
2024/03/24 06:08:45;;;;;;;1.85;0.60;;;;;;;6.59;82.42;99920.13;5033228;28;20102;-68
2024/03/24 06:11:10;;;;;;;0.55;0.13;;;;;;;6.86;80.63;99916.91;5038100;28;20037;-67
2024/03/24 06:13:36;;;;;;;0.47;0.00;;;;;;;7.10;76.64;99925.09;5033325;28;20061;-67
2024/03/24 06:16:01;;;;;;;0.40;0.10;;;;;;;7.20;79.03;99923.31;5042187;28;20044;-68
2024/03/24 06:18:27;;;;;;;0.43;0.00;;;;;;;7.30;76.54;99920.75;5045637;28;20025;-67
2024/03/24 06:20:53;;;;;;;1.85;0.00;;;;;;;7.40;72.30;99918.97;5040770;28;20033;-67
2024/03/24 06:23:19;;;;;;;0.13;0.00;;;;;;;7.65;70.50;99920.97;5039868;28;20033;-67
2024/03/24 06:25:44;;;;;;;0.55;0.00;;;;;;;7.82;73.94;99922.03;5043713;28;20041;-67
2024/03/24 06:28:09;;;;;;;1.95;0.00;;;;;;;7.82;75.56;99923.81;5040476;28;20037;-67
2024/03/24 06:30:35;;;;;;;0.28;0.03;;;;;;;7.89;73.15;99932.69;5042045;28;20024;-67
2024/03/24 06:33:00;;;;;;;0.30;0.05;;;;;;;7.99;74.97;99934.28;5032075;28;20048;-66
2024/03/24 06:35:26;;;;;;;0.10;0.00;;;;;;;8.07;75.61;99938.75;5037632;28;20028;-67
2024/03/24 06:37:51;;;;;;;0.10;0.00;;;;;;;8.14;76.10;99949.38;5050402;28;20039;-66
2024/03/24 06:40:17;;;;;;;0.98;0.00;;;;;;;8.25;76.01;99946.63;5048321;28;20033;-69
2024/03/24 06:43:02;;;;;;;0.00;0.00;;;;;;;8.41;75.14;99948.66;5041185;28;20135;-68
2024/03/24 06:45:31;;;;;;;0.10;0.00;;;;;;;8.54;74.45;99944.75;5031925;28;20113;-69
2024/03/24 06:48:05;;;;;;;0.20;0.00;;;;;;;8.79;75.43;99951.06;5039812;28;20029;-67
2024/03/24 06:50:31;;;;;;;0.80;0.00;;;;;;;9.02;75.47;99958.41;5061486;28;20055;-68
2024/03/24 06:52:57;;;;;;;0.40;0.00;;;;;;;9.26;74.46;99963.88;5041451;28;20032;-67
2024/03/24 06:55:26;;;;;;;0.00;0.00;;;;;;;9.40;73.28;99970.34;5035983;28;20045;-68
2024/03/24 06:57:55;;;;;;;0.13;0.00;;;;;;;9.56;73.72;99968.69;5043868;28;20468;-67
2024/03/24 07:03:38;;;;;;;0.25;0.00;;;;;;;9.73;65.73;99974.03;5048483;28;20372;-68
2024/03/24 07:06:05;;;;;;;0.32;0.00;;;;;;;9.82;71.26;99979.16;5048469;28;20028;-68
2024/03/24 07:08:30;;;;;;;0.00;0.00;;;;;;;10.04;68.44;99982.19;5055439;28;20039;-68
2024/03/24 07:10:56;;;;;;;0.00;0.00;;;;;;;10.16;70.74;99981.00;5056539;28;20021;-68
2024/03/24 07:13:21;;;;;;;0.00;0.00;;;;;;;10.30;69.83;99990.88;5039804;28;20052;-68
2024/03/24 07:15:47;;;;;;;1.13;0.00;;;;;;;10.15;62.13;99987.97;5042333;28;20021;-69
2024/03/24 07:18:12;;;;;;;0.17;0.00;;;;;;;10.26;68.68;99985.16;5039658;28;20033;-68
2024/03/24 07:20:37;;;;;;;1.02;0.05;;;;;;;10.34;63.27;99986.19;5043591;28;20032;-69
2024/03/24 07:23:03;;;;;;;0.03;0.00;;;;;;;10.56;66.03;99983.00;5039930;28;20151;-68
2024/03/24 07:25:28;;;;;;;0.25;0.00;;;;;;;10.89;61.84;99983.94;5041946;28;20392;-68
2024/03/24 07:27:54;;;;;;;0.03;0.00;;;;;;;10.81;63.52;99982.16;5044262;28;20542;-68
2024/03/24 07:30:19;;;;;;;0.30;0.30;;;;;;;10.83;64.96;99982.81;5039739;28;20035;-68
2024/03/24 07:32:44;;;;;;;1.17;0.00;;;;;;;11.28;67.45;99981.63;5043356;28;20060;-68
2024/03/24 07:35:10;;;;;;;0.00;0.00;;;;;;;11.39;58.97;99986.50;5043228;28;20378;-69
2024/03/24 07:37:35;;;;;;;0.82;0.10;;;;;;;11.32;65.45;99980.31;5042248;28;20108;-69
2024/03/24 07:40:01;;;;;;;3.33;0.00;;;;;;;11.58;66.90;99977.56;5041509;28;20381;-68
2024/03/24 07:42:27;;;;;;;0.13;0.00;;;;;;;11.91;67.48;99983.59;5042489;28;20111;-68
2024/03/24 07:44:53;;;;;;;0.00;0.00;;;;;;;11.98;66.69;99981.97;5042203;28;20421;-68
2024/03/24 07:47:24;;;;;;;0.08;0.00;;;;;;;12.04;67.59;99981.31;5044237;28;20052;-68
2024/03/24 07:49:50;;;;;;;0.10;0.00;;;;;;;11.95;66.38;99982.28;5036536;28;20033;-68
2024/03/24 07:52:15;;;;;;;0.52;0.00;;;;;;;12.05;67.38;99982.94;5040126;28;20052;-68
2024/03/24 07:54:41;;;;;;;0.10;0.00;;;;;;;12.21;67.64;99972.47;5038995;28;20072;-68
2024/03/24 07:57:07;;;;;;;1.55;0.00;;;;;;;12.30;63.89;99974.06;5048346;28;20029;-68
2024/03/24 07:59:33;;;;;;;0.00;0.00;;;;;;;12.40;65.54;99968.66;5035316;28;20415;-69
2024/03/24 08:01:58;;;;;;;0.10;0.00;;;;;;;12.62;65.21;99961.88;5047972;28;20048;-68
2024/03/24 08:04:24;;;;;;;0.20;0.00;;;;;;;12.57;65.22;99956.34;5044530;28;20473;-69
2024/03/24 08:06:49;;;;;;;0.05;0.00;;;;;;;12.49;66.30;99948.53;5048945;28;20433;-68
2024/03/24 08:09:15;;;;;;;0.10;0.00;;;;;;;12.71;67.24;99947.81;5046050;28;20070;-68
2024/03/24 08:11:40;;;;;;;0.10;0.00;;;;;;;12.93;66.67;99947.00;5038895;28;20041;-68
2024/03/24 08:14:06;;;;;;;0.00;0.00;;;;;;;13.29;66.39;99941.25;5038799;28;20029;-68
2024/03/24 08:16:31;;;;;;;0.00;0.00;;;;;;;13.32;65.45;99938.28;5044378;28;20031;-67
2024/03/24 08:18:56;;;;;;;0.17;0.00;;;;;;;13.25;63.49;99937.34;5046443;28;20040;-67
2024/03/24 08:21:22;;;;;;;0.47;0.00;;;;;;;13.21;61.31;99941.34;5049070;28;20033;-67
2024/03/24 08:23:47;;;;;;;1.45;0.00;;;;;;;13.00;65.60;99934.06;5042113;28;20086;-68
2024/03/24 08:26:13;;;;;;;0.00;0.00;;;;;;;13.10;58.25;99936.47;5042809;28;20025;-74
2024/03/24 08:28:38;;;;;;;0.47;0.10;;;;;;;13.53;63.57;99938.47;5044811;28;20369;-75
2024/03/24 08:31:04;;;;;;;1.85;0.00;;;;;;;14.11;64.54;99941.34;5042196;28;20051;-76
2024/03/24 08:33:29;;;;;;;0.00;0.00;;;;;;;14.11;65.03;99944.78;5043143;28;20048;-75
2024/03/24 08:35:54;;;;;;;0.20;0.00;;;;;;;14.08;62.60;99947.75;5042353;28;20036;-76
2024/03/24 08:38:20;;;;;;;0.10;0.00;;;;;;;14.04;64.86;99946.50;5040199;28;20041;-76
2024/03/24 08:40:45;;;;;;;0.05;0.00;;;;;;;14.02;61.34;99952.91;5042960;28;20033;-75
2024/03/24 08:43:11;;;;;;;0.05;0.00;;;;;;;13.97;60.51;99953.44;5042228;28;20037;-71
2024/03/24 08:45:36;;;;;;;2.30;0.10;;;;;;;14.00;62.26;99954.88;5039014;28;20430;-73
2024/03/24 08:48:03;;;;;;;0.80;0.00;;;;;;;14.32;64.45;99949.28;5043279;28;20029;-73
2024/03/24 08:50:28;;;;;;;0.13;0.00;;;;;;;13.95;62.18;99960.66;5044404;28;20036;-73
2024/03/24 08:52:54;;;;;;;0.52;0.00;;;;;;;14.23;63.40;99956.44;5039010;28;20590;-74
2024/03/24 08:55:19;;;;;;;0.35;0.00;;;;;;;13.75;56.69;99962.97;5039808;28;20061;-73
2024/03/24 08:57:45;;;;;;;0.00;0.00;;;;;;;13.28;57.46;99961.34;5039417;28;20037;-72
2024/03/24 09:00:11;;;;;;;0.10;0.00;;;;;;;13.71;57.08;99963.47;5038529;28;20111;-73
2024/03/24 09:02:37;;;;;;;1.30;0.00;;;;;;;14.11;62.09;99950.03;5053145;28;20043;-73
2024/03/24 09:05:03;;;;;;;0.10;0.00;;;;;;;13.80;55.67;99947.53;5045524;28;20028;-73
2024/03/24 09:07:29;;;;;;;0.00;0.00;;;;;;;12.80;62.18;99938.91;5040386;28;20025;-73
2024/03/24 09:09:54;;;;;;;0.68;0.05;;;;;;;12.58;62.04;99932.66;5041103;28;20082;-72
2024/03/24 09:12:19;;;;;;;0.55;0.00;;;;;;;12.43;61.24;99938.75;5043087;28;20037;-72
2024/03/24 09:14:45;;;;;;;0.00;0.00;;;;;;;12.32;63.52;99939.13;5049304;28;20484;-73
2024/03/24 09:17:10;;;;;;;0.13;0.00;;;;;;;11.98;64.52;99950.63;5042306;28;20072;-72
2024/03/24 09:19:37;;;;;;;0.00;0.00;;;;;;;12.18;63.64;99945.88;5041231;28;21172;-73
2024/03/24 09:22:02;;;;;;;0.30;0.00;;;;;;;12.05;58.34;99946.38;5042858;28;20033;-72
2024/03/24 09:24:28;;;;;;;0.55;0.00;;;;;;;12.05;63.36;99950.78;5042008;28;20029;-73
2024/03/24 09:26:56;;;;;;;1.60;0.00;;;;;;;11.77;58.55;99950.34;5046973;28;20060;-73
2024/03/24 09:29:22;;;;;;;0.10;0.00;;;;;;;11.91;61.58;99954.88;5045994;28;20041;-73
2024/03/24 09:31:48;;;;;;;0.20;0.00;;;;;;;12.05;62.82;99956.81;5037646;28;20024;-73
2024/03/24 09:34:14;;;;;;;0.65;0.00;;;;;;;12.17;63.36;99958.13;5045985;28;20053;-72
2024/03/24 09:36:40;;;;;;;0.20;0.00;;;;;;;12.19;63.80;99952.72;5040913;28;20506;-73
2024/03/24 09:39:06;;;;;;;0.50;0.00;;;;;;;12.19;63.26;99958.75;5038078;28;20057;-73
2024/03/24 09:41:35;;;;;;;1.08;0.00;;;;;;;12.16;63.33;99953.88;5043176;28;20459;-73
2024/03/24 09:44:00;;;;;;;0.10;0.00;;;;;;;12.16;64.07;99948.66;5041058;28;20052;-73
2024/03/24 09:46:26;;;;;;;0.68;0.10;;;;;;;12.12;59.27;99954.38;5051329;28;20481;-72
2024/03/24 09:48:54;;;;;;;0.70;0.00;;;;;;;12.08;61.48;99951.28;5043234;28;20052;-72
2024/03/24 09:51:22;;;;;;;0.20;0.00;;;;;;;12.00;60.26;99946.06;5038547;28;20374;-72
2024/03/24 09:53:48;;;;;;;0.52;0.00;;;;;;;11.84;62.85;99946.09;5038856;28;20033;-74
2024/03/24 09:56:14;;;;;;;0.20;0.00;;;;;;;11.83;60.56;99942.66;5046789;28;20029;-72
2024/03/24 09:58:44;;;;;;;0.55;0.00;;;;;;;11.88;62.71;99944.78;5046384;28;20025;-73
2024/03/24 10:01:10;;;;;;;0.35;0.00;;;;;;;11.79;61.58;99951.81;5041305;28;20497;-73
2024/03/24 10:03:35;;;;;;;0.30;0.00;;;;;;;11.83;60.03;99940.03;5042367;28;20072;-73
2024/03/24 10:06:04;;;;;;;2.38;0.00;;;;;;;12.05;61.10;99949.00;5038663;28;20029;-73
2024/03/24 10:08:33;;;;;;;1.00;0.00;;;;;;;12.12;61.45;99947.34;5038620;28;20074;-73
2024/03/24 10:11:31;;;;;;;0.03;0.00;;;;;;;12.11;59.42;99940.50;5039637;28;20028;-73
2024/03/24 10:13:58;;;;;;;1.25;0.00;;;;;;;12.16;62.12;99934.78;5039444;28;20473;-74
2024/03/24 10:16:24;;;;;;;0.00;0.00;;;;;;;12.20;60.97;99930.84;5041037;28;20040;-74
2024/03/24 10:18:50;;;;;;;0.00;0.00;;;;;;;12.33;62.94;99933.72;5040622;28;20040;-69
2024/03/24 10:21:17;;;;;;;0.10;0.00;;;;;;;12.46;62.47;99938.41;5047581;28;20063;-71
2024/03/24 10:23:43;;;;;;;0.00;0.00;;;;;;;12.45;62.56;99927.16;5046971;28;20086;-74
2024/03/24 10:26:09;;;;;;;0.38;0.10;;;;;;;12.35;60.53;99925.72;5038507;28;20036;-73
2024/03/24 10:28:35;;;;;;;0.30;0.00;;;;;;;12.27;57.54;99923.97;5044923;28;20025;-73
2024/03/24 10:31:07;;;;;;;0.00;0.00;;;;;;;12.10;59.85;99902.31;5041065;28;20032;-74
2024/03/24 10:33:34;;;;;;;2.10;0.22;;;;;;;12.26;61.02;99910.09;5044809;28;20617;-74
2024/03/24 10:36:00;;;;;;;0.38;0.00;;;;;;;12.24;58.17;99899.00;5043234;28;20025;-73
2024/03/24 10:38:27;;;;;;;0.10;0.00;;;;;;;12.24;59.99;99900.81;5047233;28;20147;-73
2024/03/24 10:40:58;;;;;;;0.03;0.00;;;;;;;12.24;62.20;99891.19;5040985;28;20426;-74
2024/03/24 10:43:25;;;;;;;1.08;0.00;;;;;;;12.13;59.25;99886.31;5042398;28;20126;-73
2024/03/24 10:45:55;;;;;;;0.10;0.00;;;;;;;12.24;61.18;99885.94;5043709;28;20039;-68
2024/03/24 10:48:31;;;;;;;0.10;0.00;;;;;;;12.19;60.89;99875.19;5044274;28;20037;-68
2024/03/24 10:50:58;;;;;;;0.10;0.00;;;;;;;12.19;55.26;99877.81;5046296;28;20021;-69
2024/03/24 10:53:28;;;;;;;0.00;0.00;;;;;;;12.14;54.25;99872.28;5047538;28;20041;-69
2024/03/24 10:55:58;;;;;;;0.00;0.00;;;;;;;12.17;57.28;99866.72;5047114;28;20126;-71
2024/03/24 10:58:24;;;;;;;0.43;0.00;;;;;;;12.08;54.83;99870.34;5049012;28;20073;-73
2024/03/24 11:00:51;;;;;;;0.20;0.00;;;;;;;12.22;53.86;99866.22;5046430;28;20037;-71
2024/03/24 11:03:18;;;;;;;0.25;0.00;;;;;;;12.21;54.68;99867.19;5040856;28;20471;-72
2024/03/24 11:05:48;;;;;;;0.75;0.10;;;;;;;12.42;52.34;99856.97;5044321;28;20033;-72
2024/03/24 11:08:15;;;;;;;0.60;0.00;;;;;;;12.68;54.91;99856.66;5047713;28;20044;-72
2024/03/24 11:11:02;;;;;;;1.63;0.00;;;;;;;12.59;49.63;99855.06;5051789;28;20028;-72
2024/03/24 11:13:30;;;;;;;0.00;0.00;;;;;;;12.30;53.43;99848.69;5051152;28;20033;-72
2024/03/24 11:15:58;;;;;;;0.08;0.00;;;;;;;12.36;54.16;99846.38;5046239;28;20064;-72
2024/03/24 11:18:29;;;;;;;0.10;0.00;;;;;;;12.21;58.50;99844.50;5048377;28;20045;-71
2024/03/24 11:21:03;;;;;;;0.47;0.00;;;;;;;12.10;57.79;99850.09;5047226;28;20116;-68
2024/03/24 11:23:40;;;;;;;0.70;0.00;;;;;;;12.18;56.48;99844.03;5050139;28;20039;-68
2024/03/24 11:26:08;;;;;;;1.75;0.00;;;;;;;12.28;57.06;99829.78;5049824;28;20484;-68
2024/03/24 11:28:44;;;;;;;0.20;0.00;;;;;;;12.34;53.46;99832.66;5051066;28;20472;-68
2024/03/24 11:31:19;;;;;;;0.00;0.00;;;;;;;12.29;54.13;99826.16;5042203;28;20037;-68
2024/03/24 11:33:45;;;;;;;0.00;0.00;;;;;;;12.49;55.84;99815.28;5045087;28;20075;-68
2024/03/24 11:36:16;;;;;;;2.60;0.00;;;;;;;12.61;55.63;99817.34;5042804;28;20052;-68
2024/03/24 11:38:41;;;;;;;0.00;0.00;;;;;;;12.74;56.70;99819.38;5043246;28;20550;-68